Time;durP1;ratioP1;P1;durP2;ratioP2;P2;SDS_P1;SDS_P2;PMS_P1;PMS_P2;Temp;Humidity;BMP_temperature;BMP_pressure;BME280_temperature;BME280_humidity;BME280_pressure;Samples;Min_cycle;Max_cycle;Signal;HPM_P1;HPM_P2
2022/01/24 00:00:04;;;;;;;;;;;20.40;37.20;;;;;;6316132;28;19974;-44
2022/01/24 00:03:10;;;;;;;;;;;20.40;37.30;;;;;;6314890;28;19935;-43
2022/01/24 00:06:15;;;;;;;;;;;20.30;37.50;;;;;;6315463;28;20054;-46
2022/01/24 00:09:17;;;;;;;;;;;20.40;37.60;;;;;;6317014;28;19981;-45
2022/01/24 00:12:25;;;;;;;;;;;20.10;37.30;;;;;;6315455;28;19927;-44
2022/01/24 00:15:49;;;;;;;;;;;19.90;37.20;;;;;;6308759;28;19931;-43
2022/01/24 00:28:36;;;;;;;;;;;20.40;37.50;;;;;;6292815;28;20804;-42
2022/01/24 00:31:37;;;;;;;;;;;20.40;37.40;;;;;;6314949;28;19990;-45
2022/01/24 00:34:39;;;;;;;;;;;20.00;37.30;;;;;;6315748;28;20062;-44
2022/01/24 00:37:41;;;;;;;;;;;20.00;37.30;;;;;;6317007;28;19932;-46
2022/01/24 00:40:46;;;;;;;;;;;20.10;36.80;;;;;;6318432;28;20050;-43
2022/01/24 00:44:03;;;;;;;;;;;19.90;37.40;;;;;;6297668;28;19931;-44
2022/01/24 00:47:10;;;;;;;;;;;20.00;37.40;;;;;;6316599;28;19980;-44
2022/01/24 00:53:38;;;;;;;;;;;20.20;37.40;;;;;;6319060;28;20932;-44
2022/01/24 00:56:40;;;;;;;;;;;20.20;37.40;;;;;;6285538;28;20087;-44
2022/01/24 00:59:42;;;;;;;;;;;20.10;37.40;;;;;;6317015;28;19978;-46
2022/01/24 01:02:43;;;;;;;;;;;19.50;36.70;;;;;;6321404;28;19934;-41
2022/01/24 01:06:00;;;;;;;;;;;20.50;37.50;;;;;;6302577;28;19980;-47
2022/01/24 01:18:46;;;;;;;;;;;20.40;37.50;;;;;;6322455;28;20044;-45
2022/01/24 01:21:48;;;;;;;;;;;20.10;37.50;;;;;;6318252;28;20596;-42
2022/01/24 01:24:53;;;;;;;;;;;19.90;37.20;;;;;;6315960;27;20773;-45
2022/01/24 01:27:56;;;;;;;;;;;20.00;37.40;;;;;;6312164;28;20413;-45
2022/01/24 01:31:03;;;;;;;;;;;20.20;37.40;;;;;;6320362;28;19985;-44
2022/01/24 01:34:15;;;;;;;;;;;20.10;37.30;;;;;;6320398;28;19995;-45
2022/01/24 01:37:41;;;;;;;;;;;20.30;37.50;;;;;;6323557;28;20871;-43
2022/01/24 01:54:07;;;;;;;;;;;20.00;38.00;;;;;;6325080;28;19974;-44
2022/01/24 01:57:11;;;;;;;;;;;19.90;37.20;;;;;;6319250;28;19928;-45
2022/01/24 02:00:13;;;;;;;;;;;20.00;37.30;;;;;;6316413;28;20035;-42
2022/01/24 02:03:15;;;;;;;;;;;20.10;37.40;;;;;;6317956;28;19938;-49
2022/01/24 02:06:17;;;;;;;;;;;20.40;38.00;;;;;;6318523;28;20062;-42
2022/01/24 02:09:28;;;;;;;;;;;19.90;37.40;;;;;;6315484;28;20639;-45
2022/01/24 02:12:29;;;;;;;;;;;19.90;37.20;;;;;;6318046;28;19938;-44
2022/01/24 02:15:41;;;;;;;;;;;20.30;37.60;;;;;;6314537;28;20539;-42
2022/01/24 02:18:51;;;;;;;;;;;19.90;37.40;;;;;;6312660;28;20343;-42
2022/01/24 02:25:23;;;;;;;;;;;20.10;37.60;;;;;;6315769;27;19971;-42
2022/01/24 02:28:27;;;;;;;;;;;20.20;37.20;;;;;;6306506;28;20311;-42
2022/01/24 02:31:42;;;;;;;;;;;19.90;37.30;;;;;;6300804;28;20399;-42
2022/01/24 02:34:46;;;;;;;;;;;19.90;37.30;;;;;;6311764;28;20458;-42
2022/01/24 02:37:48;;;;;;;;;;;20.30;37.30;;;;;;6315245;28;20038;-42
2022/01/24 02:50:53;;;;;;;;;;;19.90;36.80;;;;;;6312167;28;20484;-42
2022/01/24 02:53:55;;;;;;;;;;;20.20;37.60;;;;;;6310768;28;20352;-42
2022/01/24 02:56:56;;;;;;;;;;;19.90;37.50;;;;;;6311765;28;20031;-42
2022/01/24 02:59:58;;;;;;;;;;;19.80;37.30;;;;;;6313548;28;19983;-42
2022/01/24 03:02:59;;;;;;;;;;;19.80;37.50;;;;;;6314271;28;20474;-42
2022/01/24 03:06:01;;;;;;;;;;;20.20;37.60;;;;;;6312224;28;20633;-45
2022/01/24 03:09:03;;;;;;;;;;;20.30;37.20;;;;;;6318282;28;19971;-42
2022/01/24 03:12:07;;;;;;;;;;;19.90;37.60;;;;;;6308164;28;20311;-42
2022/01/24 03:15:09;;;;;;;;;;;19.80;37.50;;;;;;6317498;28;20056;-42
2022/01/24 03:18:11;;;;;;;;;;;19.50;37.30;;;;;;6299848;28;20054;-42
2022/01/24 03:21:12;;;;;;;;;;;19.90;37.60;;;;;;6322374;28;20010;-43
2022/01/24 03:24:14;;;;;;;;;;;19.90;37.60;;;;;;6318885;27;20355;-42
2022/01/24 03:27:16;;;;;;;;;;;19.70;37.50;;;;;;6311803;28;19931;-42
2022/01/24 03:30:18;;;;;;;;;;;20.10;37.30;;;;;;6314670;28;20353;-41
2022/01/24 03:33:19;;;;;;;;;;;19.70;37.70;;;;;;6321818;28;20025;-45
2022/01/24 03:36:21;;;;;;;;;;;19.60;37.40;;;;;;6309976;28;20386;-42
2022/01/24 03:39:23;;;;;;;;;;;20.30;37.80;;;;;;6320401;28;20382;-43
2022/01/24 03:42:24;;;;;;;;;;;19.90;37.70;;;;;;6314064;28;20395;-43
2022/01/24 03:45:38;;;;;;;;;;;19.70;37.50;;;;;;6318767;28;19985;-42
2022/01/24 03:48:42;;;;;;;;;;;19.70;37.50;;;;;;6310346;28;20042;-42
2022/01/24 03:51:44;;;;;;;;;;;19.60;37.40;;;;;;6314824;28;20369;-42
2022/01/24 03:54:47;;;;;;;;;;;19.70;37.60;;;;;;6316517;28;20772;-43
2022/01/24 03:57:49;;;;;;;;;;;19.60;37.60;;;;;;6323139;28;20623;-46
2022/01/24 04:00:50;;;;;;;;;;;20.30;37.70;;;;;;6322289;28;19928;-42
2022/01/24 04:03:52;;;;;;;;;;;20.50;38.10;;;;;;6322095;28;20221;-42
2022/01/24 04:06:53;;;;;;;;;;;19.80;37.70;;;;;;6314670;28;20304;-42
2022/01/24 04:09:58;;;;;;;;;;;19.90;37.60;;;;;;6298491;28;20349;-43
2022/01/24 04:13:08;;;;;;;;;;;20.00;37.80;;;;;;6312592;28;20352;-41
2022/01/24 04:16:23;;;;;;;;;;;19.60;37.60;;;;;;6306932;28;19971;-41
2022/01/24 04:21:18;;;;;;;;;;;20.00;38.00;;;;;;6319657;28;19978;-39
2022/01/24 04:22:50;;;;;;;;;;;19.70;37.80;;;;;;6302913;28;19928;-39
2022/01/24 04:25:52;;;;;;;;;;;20.00;38.00;;;;;;6312115;28;19987;-41
2022/01/24 04:28:54;;;;;;;;;;;19.90;38.10;;;;;;6320103;28;20086;-40
2022/01/24 04:31:57;;;;;;;;;;;19.60;37.70;;;;;;6304007;28;19932;-39
2022/01/24 04:34:58;;;;;;;;;;;20.20;38.10;;;;;;6322182;28;20688;-39
2022/01/24 04:37:59;;;;;;;;;;;19.70;38.00;;;;;;6323766;28;19976;-39
2022/01/24 04:41:06;;;;;;;;;;;19.90;38.10;;;;;;6319183;28;20058;-39
2022/01/24 04:44:15;;;;;;;;;;;19.80;38.00;;;;;;6319761;28;20034;-40
2022/01/24 04:47:23;;;;;;;;;;;19.70;38.00;;;;;;6319770;28;19985;-38
2022/01/24 04:50:43;;;;;;;;;;;19.50;37.90;;;;;;6315614;28;20724;-39
2022/01/24 04:54:04;;;;;;;;;;;19.60;37.90;;;;;;6321604;28;19962;-39
2022/01/24 04:57:07;;;;;;;;;;;19.80;38.20;;;;;;6319363;28;20046;-39
2022/01/24 05:00:10;;;;;;;;;;;19.50;37.90;;;;;;6315603;28;19928;-42
2022/01/24 05:03:11;;;;;;;;;;;19.50;38.00;;;;;;6317921;28;20057;-39
2022/01/24 05:06:12;;;;;;;;;;;20.10;38.40;;;;;;6321272;28;19932;-39
2022/01/24 05:09:14;;;;;;;;;;;19.50;38.10;;;;;;6322056;28;19965;-40
2022/01/24 05:12:24;;;;;;;;;;;19.30;38.10;;;;;;6317429;28;19924;-39
2022/01/24 05:25:10;;;;;;;;;;;19.40;38.10;;;;;;6315892;28;20730;-39
2022/01/24 05:28:12;;;;;;;;;;;19.40;38.10;;;;;;6313339;28;19972;-39
2022/01/24 05:31:14;;;;;;;;;;;19.30;38.00;;;;;;6316492;28;20038;-39
2022/01/24 05:34:15;;;;;;;;;;;19.50;37.80;;;;;;6316379;28;19930;-40
2022/01/24 05:37:17;;;;;;;;;;;19.40;37.60;;;;;;6312250;28;20045;-40
2022/01/24 05:40:18;;;;;;;;;;;19.60;38.30;;;;;;6314679;28;20864;-40
2022/01/24 05:43:20;;;;;;;;;;;19.40;38.10;;;;;;6297477;27;20581;-40
2022/01/24 05:46:21;;;;;;;;;;;19.40;38.10;;;;;;6312126;28;19974;-40
2022/01/24 05:49:22;;;;;;;;;;;19.20;38.10;;;;;;6307088;28;20187;-40
2022/01/24 05:52:24;;;;;;;;;;;19.40;38.30;;;;;;6303241;28;19985;-38
2022/01/24 05:55:25;;;;;;;;;;;19.60;38.20;;;;;;6306575;28;20023;-39
2022/01/24 05:58:27;;;;;;;;;;;19.70;38.10;;;;;;6310271;28;19924;-40
2022/01/24 06:01:28;;;;;;;;;;;19.30;38.20;;;;;;6304457;28;20046;-40
2022/01/24 06:04:30;;;;;;;;;;;19.30;38.30;;;;;;6307922;28;20000;-42
2022/01/24 06:07:32;;;;;;;;;;;19.70;38.00;;;;;;6295689;28;20327;-40
2022/01/24 06:10:36;;;;;;;;;;;19.60;38.60;;;;;;6311839;28;20029;-40
2022/01/24 06:13:38;;;;;;;;;;;19.40;37.90;;;;;;6311113;28;20050;-40
2022/01/24 06:16:40;;;;;;;;;;;19.80;38.70;;;;;;6311694;28;19976;-41
2022/01/24 06:19:41;;;;;;;;;;;19.50;38.60;;;;;;6310278;28;20004;-40
2022/01/24 06:22:43;;;;;;;;;;;19.30;38.60;;;;;;6309544;28;19928;-45
2022/01/24 06:25:44;;;;;;;;;;;19.30;38.70;;;;;;6309612;28;20841;-40
2022/01/24 06:28:46;;;;;;;;;;;19.10;38.40;;;;;;6308761;28;19978;-42
2022/01/24 06:31:48;;;;;;;;;;;19.40;38.70;;;;;;6313002;28;19932;-43
2022/01/24 06:34:50;;;;;;;;;;;19.30;38.60;;;;;;6311195;28;20686;-40
2022/01/24 06:37:52;;;;;;;;;;;19.70;38.90;;;;;;6311989;28;19934;-39
2022/01/24 06:40:53;;;;;;;;;;;19.30;38.70;;;;;;6281868;28;19931;-39
2022/01/24 06:43:55;;;;;;;;;;;19.60;39.00;;;;;;6302148;28;20661;-40
2022/01/24 06:46:57;;;;;;;;;;;19.40;38.80;;;;;;6306672;28;20000;-40
2022/01/24 06:49:58;;;;;;;;;;;19.20;38.60;;;;;;6300830;28;21180;-40
2022/01/24 06:52:59;;;;;;;;;;;19.40;38.70;;;;;;6300167;28;20759;-41
2022/01/24 06:56:01;;;;;;;;;;;19.30;38.60;;;;;;6297689;28;19950;-42
2022/01/24 06:59:03;;;;;;;;;;;19.50;38.70;;;;;;6298005;28;19938;-39
2022/01/24 07:02:04;;;;;;;;;;;19.40;38.40;;;;;;6294128;28;20117;-39
2022/01/24 07:05:07;;;;;;;;;;;19.80;38.50;;;;;;6292942;28;20052;-40
2022/01/24 07:08:08;;;;;;;;;;;20.00;38.40;;;;;;6267228;28;19932;-39
2022/01/24 07:11:09;;;;;;;;;;;20.00;38.50;;;;;;6287050;28;20046;-39
2022/01/24 07:14:13;;;;;;;;;;;19.60;38.10;;;;;;6288934;28;19932;-41
2022/01/24 07:17:29;;;;;;;;;;;19.90;38.20;;;;;;6292585;28;19935;-40
2022/01/24 07:20:35;;;;;;;;;;;19.60;37.80;;;;;;6268619;28;19943;-44
2022/01/24 07:23:36;;;;;;;;;;;19.70;37.90;;;;;;6264212;28;21610;-40
2022/01/24 07:26:38;;;;;;;;;;;19.60;37.80;;;;;;6274560;28;20014;-40
2022/01/24 07:29:40;;;;;;;;;;;19.60;37.70;;;;;;6280063;28;19932;-39
2022/01/24 07:32:42;;;;;;;;;;;19.80;37.70;;;;;;6255716;28;21760;-42
2022/01/24 07:35:44;;;;;;;;;;;20.00;37.70;;;;;;6259538;28;20756;-41
2022/01/24 07:38:45;;;;;;;;;;;20.30;37.40;;;;;;6235463;28;19932;-42
2022/01/24 07:41:47;;;;;;;;;;;20.00;37.70;;;;;;6261698;28;20614;-40
2022/01/24 07:44:52;;;;;;;;;;;20.00;37.60;;;;;;6242527;28;19932;-40
2022/01/24 07:47:58;;;;;;;;;;;20.30;37.60;;;;;;6252283;28;20089;-40
2022/01/24 07:50:59;;;;;;;;;;;19.90;37.60;;;;;;6231330;28;19971;-42
2022/01/24 07:54:01;;;;;;;;;;;20.00;37.60;;;;;;6253239;28;21681;-44
2022/01/24 07:57:03;;;;;;;;;;;20.50;37.50;;;;;;6238372;28;19980;-40
2022/01/24 08:00:07;;;;;;;;;;;20.00;37.30;;;;;;6240270;28;19952;-42
2022/01/24 08:03:14;;;;;;;;;;;20.00;37.20;;;;;;6167475;28;19932;-42
2022/01/24 08:06:16;;;;;;;;;;;20.20;37.40;;;;;;6188131;28;19938;-42
2022/01/24 08:09:17;;;;;;;;;;;20.40;37.40;;;;;;6199961;28;19935;-43
2022/01/24 08:12:19;;;;;;;;;;;20.00;37.00;;;;;;6220640;28;19960;-43
2022/01/24 08:15:21;;;;;;;;;;;20.30;37.30;;;;;;6219386;28;19938;-44
2022/01/24 08:18:22;;;;;;;;;;;20.30;37.10;;;;;;6232453;28;19979;-45
2022/01/24 08:21:24;;;;;;;;;;;20.30;37.00;;;;;;6221757;28;19938;-43
2022/01/24 08:24:25;;;;;;;;;;;20.60;37.20;;;;;;6192771;28;20070;-43
2022/01/24 08:27:27;;;;;;;;;;;20.10;37.00;;;;;;6181289;28;20076;-43
2022/01/24 08:30:29;;;;;;;;;;;20.20;37.10;;;;;;6213180;28;20731;-44
2022/01/24 08:33:30;;;;;;;;;;;20.50;36.70;;;;;;6198410;28;21524;-43
2022/01/24 08:36:32;;;;;;;;;;;20.70;36.90;;;;;;6193055;28;21081;-46
2022/01/24 08:39:33;;;;;;;;;;;20.80;36.40;;;;;;6219948;28;19931;-43
2022/01/24 08:42:40;;;;;;;;;;;20.80;36.80;;;;;;6186916;28;20049;-44
2022/01/24 08:45:50;;;;;;;;;;;20.50;36.60;;;;;;6192063;28;19938;-44
2022/01/24 08:48:52;;;;;;;;;;;20.80;36.70;;;;;;6201131;28;20046;-43
2022/01/24 08:51:54;;;;;;;;;;;21.10;36.60;;;;;;6208217;28;19986;-46
2022/01/24 08:55:08;;;;;;;;;;;20.80;36.70;;;;;;6206273;28;19939;-43
2022/01/24 08:58:13;;;;;;;;;;;20.40;36.30;;;;;;6210744;28;20054;-45
2022/01/24 09:01:15;;;;;;;;;;;20.60;36.30;;;;;;6216057;28;19931;-44
2022/01/24 09:04:17;;;;;;;;;;;21.30;36.60;;;;;;6195793;28;21376;-44
2022/01/24 09:07:20;;;;;;;;;;;20.90;36.40;;;;;;6217570;28;19938;-43
2022/01/24 09:10:24;;;;;;;;;;;21.20;36.60;;;;;;6217436;28;20012;-45
2022/01/24 09:13:25;;;;;;;;;;;21.20;36.40;;;;;;6215898;28;21530;-43
2022/01/24 09:16:27;;;;;;;;;;;21.00;36.40;;;;;;6204072;27;19931;-44
2022/01/24 09:19:29;;;;;;;;;;;21.10;37.00;;;;;;6183257;28;19940;-41
2022/01/24 09:22:33;;;;;;;;;;;21.30;36.20;;;;;;6183481;28;19939;-43
2022/01/24 09:25:35;;;;;;;;;;;20.70;36.10;;;;;;6204705;28;19971;-44
2022/01/24 09:28:37;;;;;;;;;;;21.40;36.50;;;;;;6178243;28;21763;-44
2022/01/24 09:31:39;;;;;;;;;;;21.20;36.20;;;;;;6225274;28;20009;-46
2022/01/24 09:34:40;;;;;;;;;;;21.10;36.00;;;;;;6228251;28;21808;-45
2022/01/24 09:37:42;;;;;;;;;;;21.40;36.30;;;;;;6223941;28;19932;-48
2022/01/24 09:40:44;;;;;;;;;;;21.50;36.10;;;;;;6203245;28;21402;-44
2022/01/24 09:43:46;;;;;;;;;;;21.40;36.10;;;;;;6201718;28;22202;-44
2022/01/24 09:46:48;;;;;;;;;;;21.00;35.80;;;;;;6211866;28;21028;-43
2022/01/24 09:49:50;;;;;;;;;;;21.20;35.90;;;;;;6234662;28;21071;-43
2022/01/24 09:52:52;;;;;;;;;;;21.60;36.00;;;;;;6224510;28;19932;-47
2022/01/24 09:55:53;;;;;;;;;;;21.60;36.10;;;;;;6229886;27;19948;-44
2022/01/24 09:58:55;;;;;;;;;;;21.50;36.20;;;;;;6211971;28;19931;-44
2022/01/24 10:01:57;;;;;;;;;;;21.60;36.00;;;;;;6208598;28;21249;-43
2022/01/24 10:05:11;;;;;;;;;;;21.60;35.70;;;;;;6199165;28;20701;-42
2022/01/24 10:08:13;;;;;;;;;;;21.50;35.80;;;;;;6163822;28;19932;-42
2022/01/24 10:11:16;;;;;;;;;;;21.20;35.70;;;;;;6210187;28;21762;-47
2022/01/24 10:17:49;;;;;;;;;;;21.70;35.20;;;;;;6178195;28;20058;-48
2022/01/24 10:20:51;;;;;;;;;;;21.10;35.50;;;;;;6211156;28;20715;-44
2022/01/24 10:23:52;;;;;;;;;;;21.70;35.90;;;;;;6222019;28;19936;-44
2022/01/24 10:27:03;;;;;;;;;;;21.30;35.50;;;;;;6207141;28;20061;-44
2022/01/24 10:30:08;;;;;;;;;;;21.80;34.30;;;;;;6206313;28;20799;-42
2022/01/24 10:33:13;;;;;;;;;;;21.60;35.60;;;;;;6208590;28;19938;-45
2022/01/24 10:36:24;;;;;;;;;;;20.90;35.20;;;;;;6201652;28;21471;-45
2022/01/24 10:39:31;;;;;;;;;;;21.90;35.80;;;;;;6210606;28;20141;-43
2022/01/24 10:42:46;;;;;;;;;;;21.70;35.50;;;;;;6192281;28;19970;-44
2022/01/24 10:45:47;;;;;;;;;;;21.40;35.10;;;;;;6199643;28;20091;-45
2022/01/24 10:48:59;;;;;;;;;;;21.50;35.70;;;;;;6224021;28;20120;-45
2022/01/24 10:52:08;;;;;;;;;;;21.80;35.60;;;;;;6227022;28;21081;-44
2022/01/24 10:55:11;;;;;;;;;;;21.80;35.40;;;;;;6198223;28;19939;-48
2022/01/24 10:58:15;;;;;;;;;;;21.80;35.50;;;;;;6187131;28;19936;-49
2022/01/24 11:01:21;;;;;;;;;;;21.30;35.10;;;;;;6219560;28;20384;-41
2022/01/24 11:04:26;;;;;;;;;;;21.80;35.40;;;;;;6198760;28;19932;-45
2022/01/24 11:07:55;;;;;;;;;;;22.00;35.50;;;;;;6208572;28;19939;-44
2022/01/24 11:10:56;;;;;;;;;;;21.80;35.40;;;;;;6227762;28;19996;-42
2022/01/24 11:13:59;;;;;;;;;;;21.90;35.40;;;;;;6245464;28;19939;-42
2022/01/24 11:17:01;;;;;;;;;;;21.50;35.40;;;;;;6248824;28;21169;-39
2022/01/24 11:20:04;;;;;;;;;;;22.10;35.50;;;;;;6206729;28;19939;-41
2022/01/24 11:23:06;;;;;;;;;;;21.90;35.70;;;;;;6223398;28;20876;-42
2022/01/24 11:26:09;;;;;;;;;;;22.30;35.50;;;;;;6214921;28;20024;-41
2022/01/24 11:29:11;;;;;;;;;;;21.70;35.20;;;;;;6214311;28;19932;-40
2022/01/24 11:32:16;;;;;;;;;;;22.00;35.30;;;;;;6240014;28;20873;-42
2022/01/24 11:35:29;;;;;;;;;;;21.70;35.10;;;;;;6240304;28;19938;-42
2022/01/24 11:38:35;;;;;;;;;;;21.60;35.00;;;;;;6229833;28;20105;-45
2022/01/24 11:41:39;;;;;;;;;;;22.20;35.40;;;;;;6228155;28;20052;-44
2022/01/24 11:44:48;;;;;;;;;;;21.90;35.10;;;;;;6246695;28;19927;-46
2022/01/24 11:47:50;;;;;;;;;;;21.80;35.00;;;;;;6230038;28;21483;-43
2022/01/24 11:50:56;;;;;;;;;;;21.80;35.30;;;;;;6249607;28;20050;-43
2022/01/24 11:53:58;;;;;;;;;;;21.70;35.10;;;;;;6227147;28;19935;-44
2022/01/24 11:57:15;;;;;;;;;;;22.00;35.10;;;;;;6239696;28;21375;-42
2022/01/24 12:00:18;;;;;;;;;;;22.10;35.20;;;;;;6229831;28;20829;-43
2022/01/24 12:03:23;;;;;;;;;;;22.20;35.40;;;;;;6248118;28;20042;-45
2022/01/24 12:06:25;;;;;;;;;;;21.70;35.00;;;;;;6255021;28;20893;-44
2022/01/24 12:09:47;;;;;;;;;;;21.60;35.00;;;;;;6235710;28;19978;-43
2022/01/24 12:12:49;;;;;;;;;;;22.10;35.20;;;;;;6257017;28;20050;-42
2022/01/24 12:15:56;;;;;;;;;;;22.00;35.10;;;;;;6248432;28;19935;-45
2022/01/24 12:18:59;;;;;;;;;;;21.50;34.80;;;;;;6264378;28;19932;-44
2022/01/24 12:22:20;;;;;;;;;;;22.10;35.00;;;;;;6270836;28;20072;-45
2022/01/24 12:25:47;;;;;;;;;;;21.70;35.00;;;;;;6250369;28;20054;-47
2022/01/24 12:28:49;;;;;;;;;;;22.20;35.10;;;;;;6240637;28;19931;-45
2022/01/24 12:31:55;;;;;;;;;;;22.10;35.10;;;;;;6248758;28;19939;-42
2022/01/24 12:34:56;;;;;;;;;;;21.90;34.80;;;;;;6223943;28;20022;-45
2022/01/24 12:38:13;;;;;;;;;;;21.80;35.10;;;;;;6196212;28;19932;-44
2022/01/24 12:41:16;;;;;;;;;;;21.80;35.00;;;;;;6210830;28;21473;-42
2022/01/24 12:47:36;;;;;;;;;;;21.70;34.80;;;;;;6211786;28;20042;-43
2022/01/24 12:50:41;;;;;;;;;;;22.20;35.20;;;;;;6231507;28;19961;-43
2022/01/24 12:53:42;;;;;;;;;;;22.30;35.00;;;;;;6239342;28;19953;-44
2022/01/24 12:56:44;;;;;;;;;;;21.70;34.70;;;;;;6214741;28;19932;-43
2022/01/24 12:59:54;;;;;;;;;;;21.90;34.90;;;;;;6189777;28;19970;-42
2022/01/24 13:02:55;;;;;;;;;;;22.00;34.90;;;;;;6181159;28;21397;-45
2022/01/24 13:05:57;;;;;;;;;;;22.30;35.00;;;;;;6196376;28;19932;-44
2022/01/24 13:08:59;;;;;;;;;;;22.50;35.20;;;;;;6191422;28;19939;-44
2022/01/24 13:12:05;;;;;;;;;;;22.20;34.90;;;;;;6186190;28;19940;-41
2022/01/24 13:15:19;;;;;;;;;;;21.80;34.70;;;;;;6162664;28;19975;-41
2022/01/24 13:21:37;;;;;;;;;;;21.90;34.80;;;;;;6189820;28;19939;-43
2022/01/24 13:24:39;;;;;;;;;;;22.20;34.90;;;;;;6186158;27;19932;-44
2022/01/24 13:27:42;;;;;;;;;;;22.30;35.00;;;;;;6195776;27;19978;-44
2022/01/24 13:30:46;;;;;;;;;;;22.40;34.90;;;;;;6181439;28;21365;-44
2022/01/24 13:33:49;;;;;;;;;;;22.00;34.80;;;;;;6186589;28;19932;-43
2022/01/24 13:36:51;;;;;;;;;;;22.20;34.90;;;;;;6184763;28;19937;-44
2022/01/24 13:39:54;;;;;;;;;;;22.40;34.50;;;;;;6186801;28;20057;-43
2022/01/24 13:42:59;;;;;;;;;;;22.30;34.90;;;;;;6198222;28;19943;-42
2022/01/24 13:46:02;;;;;;;;;;;21.80;34.60;;;;;;6192054;28;20052;-44
2022/01/24 13:49:06;;;;;;;;;;;22.20;34.70;;;;;;6190805;28;19939;-46
2022/01/24 13:52:11;;;;;;;;;;;22.50;35.00;;;;;;6195324;28;20860;-43
2022/01/24 14:27:10;;;;;;;;;;;22.30;33.90;;;;;;6190741;28;19927;-45
2022/01/24 14:30:13;;;;;;;;;;;22.50;34.80;;;;;;6190017;28;20796;-44
2022/01/24 14:33:16;;;;;;;;;;;22.50;34.90;;;;;;6169875;28;19938;-43
2022/01/24 14:36:18;;;;;;;;;;;22.10;34.50;;;;;;6165881;28;19939;-44
2022/01/24 14:39:20;;;;;;;;;;;22.50;34.90;;;;;;6154579;28;19959;-44
2022/01/24 14:46:47;;;;;;;;;;;22.40;34.60;;;;;;6287696;28;19932;-44
2022/01/24 14:49:48;;;;;;;;;;;22.70;34.70;;;;;;6132068;28;19932;-45
2022/01/24 14:52:50;;;;;;;;;;;22.50;34.90;;;;;;6165801;28;20866;-44
2022/01/24 14:55:51;;;;;;;;;;;22.50;34.70;;;;;;6159609;28;19965;-49
2022/01/24 14:58:53;;;;;;;;;;;21.90;34.50;;;;;;6174116;28;21195;-45
2022/01/24 15:01:56;;;;;;;;;;;22.40;34.50;;;;;;6163451;28;20054;-43
2022/01/24 15:04:58;;;;;;;;;;;22.70;34.80;;;;;;6160539;28;19962;-45
2022/01/24 15:07:59;;;;;;;;;;;21.80;34.60;;;;;;6169611;28;22527;-46
2022/01/24 15:11:01;;;;;;;;;;;22.60;34.80;;;;;;6156733;28;20047;-43
2022/01/24 15:14:11;;;;;;;;;;;22.70;34.60;;;;;;6156322;28;19932;-43
2022/01/24 15:17:28;;;;;;;;;;;22.20;35.10;;;;;;6186128;28;21017;-43
2022/01/24 15:27:00;;;;;;;;;;;22.20;34.40;;;;;;6198670;28;20106;-44
2022/01/24 15:30:05;;;;;;;;;;;22.30;34.60;;;;;;6201235;28;19938;-44
2022/01/24 15:33:17;;;;;;;;;;;22.60;34.60;;;;;;6214104;28;19932;-49
2022/01/24 15:36:19;;;;;;;;;;;22.60;34.70;;;;;;6189324;28;21081;-48
2022/01/24 15:39:20;;;;;;;;;;;22.80;34.90;;;;;;6172927;28;19931;-45
2022/01/24 15:42:36;;;;;;;;;;;22.40;34.50;;;;;;6194619;28;19936;-42
2022/01/24 15:45:42;;;;;;;;;;;22.40;34.50;;;;;;6192488;28;19939;-44
2022/01/24 15:48:44;;;;;;;;;;;22.40;34.50;;;;;;6174474;28;20024;-48
2022/01/24 15:51:46;;;;;;;;;;;22.70;34.80;;;;;;6193196;28;19938;-45
2022/01/24 15:54:51;;;;;;;;;;;22.80;34.60;;;;;;6203258;28;19939;-47
2022/01/24 15:57:53;;;;;;;;;;;22.50;34.50;;;;;;6194771;28;19938;-44
2022/01/24 16:00:54;;;;;;;;;;;22.30;34.40;;;;;;6207919;28;20096;-43
2022/01/24 16:03:57;;;;;;;;;;;22.40;34.50;;;;;;6209641;28;20841;-42
2022/01/24 16:06:58;;;;;;;;;;;22.50;34.50;;;;;;6203626;28;20170;-42
2022/01/24 16:10:00;;;;;;;;;;;22.20;34.30;;;;;;6204665;28;19932;-43
2022/01/24 16:13:02;;;;;;;;;;;22.40;34.60;;;;;;6195277;28;19932;-44
2022/01/24 16:16:05;;;;;;;;;;;22.80;34.80;;;;;;6181315;28;21012;-41
2022/01/24 16:19:07;;;;;;;;;;;22.80;34.60;;;;;;6178634;28;19939;-42
2022/01/24 16:22:17;;;;;;;;;;;22.40;34.50;;;;;;6164023;28;19932;-43
2022/01/24 16:25:37;;;;;;;;;;;22.40;34.60;;;;;;6181817;28;19979;-43
2022/01/24 16:28:38;;;;;;;;;;;22.70;34.70;;;;;;6181075;28;21004;-41
2022/01/24 16:31:40;;;;;;;;;;;22.70;35.10;;;;;;6223573;28;20013;-41
2022/01/24 16:34:42;;;;;;;;;;;23.50;35.00;;;;;;6222427;28;19935;-45
2022/01/24 16:37:44;;;;;;;;;;;22.80;34.70;;;;;;6208622;28;19931;-42
2022/01/24 16:40:48;;;;;;;;;;;22.70;34.70;;;;;;6220799;28;19935;-42
2022/01/24 16:43:57;;;;;;;;;;;22.40;34.50;;;;;;6224049;28;19971;-44
2022/01/24 16:47:06;;;;;;;;;;;22.50;35.20;;;;;;6221161;28;20424;-43
2022/01/24 16:50:08;;;;;;;;;;;22.30;34.40;;;;;;6246279;28;20046;-42
2022/01/24 16:53:14;;;;;;;;;;;22.90;34.80;;;;;;6251853;28;19971;-42
2022/01/24 16:56:15;;;;;;;;;;;22.80;34.70;;;;;;6232881;28;19931;-47
2022/01/24 16:59:17;;;;;;;;;;;22.80;34.80;;;;;;6243372;28;21651;-45
2022/01/24 17:02:18;;;;;;;;;;;22.60;34.70;;;;;;6227283;28;20928;-41
2022/01/24 17:05:21;;;;;;;;;;;22.40;34.70;;;;;;6224655;28;19932;-41
2022/01/24 17:08:22;;;;;;;;;;;22.40;34.60;;;;;;6243827;28;19932;-41
2022/01/24 17:11:27;;;;;;;;;;;22.10;34.50;;;;;;6245290;27;20170;-39
2022/01/24 17:14:31;;;;;;;;;;;22.80;34.80;;;;;;6253843;28;23820;-42
2022/01/24 17:17:33;;;;;;;;;;;22.40;34.60;;;;;;6254756;28;19939;-42
2022/01/24 17:20:35;;;;;;;;;;;22.20;34.60;;;;;;6248378;28;20000;-38
2022/01/24 17:23:37;;;;;;;;;;;22.20;34.60;;;;;;6263520;28;19932;-41
2022/01/24 17:26:39;;;;;;;;;;;22.30;34.80;;;;;;6264476;27;20042;-40
2022/01/24 17:29:40;;;;;;;;;;;22.20;34.60;;;;;;6264072;28;20058;-41
2022/01/24 17:32:43;;;;;;;;;;;22.80;35.00;;;;;;6261792;28;23032;-41
2022/01/24 17:35:46;;;;;;;;;;;22.50;34.70;;;;;;6257560;28;19958;-46
2022/01/24 17:38:47;;;;;;;;;;;22.30;34.60;;;;;;6264495;27;20745;-42
2022/01/24 17:41:49;;;;;;;;;;;22.70;34.90;;;;;;6278733;28;19923;-43
2022/01/24 17:44:50;;;;;;;;;;;22.90;35.10;;;;;;6272939;28;20042;-42
2022/01/24 17:47:51;;;;;;;;;;;22.30;34.80;;;;;;6270226;28;19932;-41
2022/01/24 17:50:54;;;;;;;;;;;22.40;34.70;;;;;;6268785;28;20261;-42
2022/01/24 17:53:55;;;;;;;;;;;22.20;34.50;;;;;;6270532;28;21256;-42
2022/01/24 17:56:56;;;;;;;;;;;22.20;34.70;;;;;;6276618;28;19939;-42
2022/01/24 17:59:58;;;;;;;;;;;22.20;34.70;;;;;;6277651;28;19940;-41
2022/01/24 18:02:59;;;;;;;;;;;22.20;34.70;;;;;;6280902;28;19991;-43
2022/01/24 18:06:03;;;;;;;;;;;22.40;34.80;;;;;;6276481;28;19934;-42
2022/01/24 18:09:04;;;;;;;;;;;22.20;34.60;;;;;;6274418;28;19931;-44
2022/01/24 18:12:06;;;;;;;;;;;22.70;35.00;;;;;;6261658;28;20801;-43
2022/01/24 18:15:10;;;;;;;;;;;23.10;35.10;;;;;;6280313;28;19932;-40
2022/01/24 18:18:12;;;;;;;;;;;22.50;35.00;;;;;;6283048;28;19932;-42
2022/01/24 18:21:14;;;;;;;;;;;22.10;34.90;;;;;;6265439;28;20837;-42
2022/01/24 18:24:15;;;;;;;;;;;22.10;34.90;;;;;;6286064;28;19938;-40
2022/01/24 18:27:16;;;;;;;;;;;22.90;35.40;;;;;;6284471;28;19939;-42
2022/01/24 18:30:18;;;;;;;;;;;22.00;35.00;;;;;;6289324;28;19976;-45
2022/01/24 18:33:24;;;;;;;;;;;22.10;35.10;;;;;;6277381;28;19932;-41
2022/01/24 18:36:26;;;;;;;;;;;21.80;35.10;;;;;;6288652;28;19932;-43
2022/01/24 18:39:28;;;;;;;;;;;22.00;35.20;;;;;;6284544;28;20042;-41
2022/01/24 18:42:32;;;;;;;;;;;21.90;35.30;;;;;;6285255;28;20050;-40
2022/01/24 18:45:33;;;;;;;;;;;21.90;35.20;;;;;;6286566;28;21556;-41
2022/01/24 18:48:35;;;;;;;;;;;21.80;35.20;;;;;;6284471;27;19932;-41
2022/01/24 18:51:37;;;;;;;;;;;21.70;35.20;;;;;;6285431;28;20377;-42
2022/01/24 18:54:39;;;;;;;;;;;21.60;35.20;;;;;;6281430;28;19932;-41
2022/01/24 18:57:40;;;;;;;;;;;21.70;35.30;;;;;;6282453;28;20132;-41
2022/01/24 19:00:42;;;;;;;;;;;22.00;35.60;;;;;;6276632;28;20802;-41
2022/01/24 19:03:44;;;;;;;;;;;21.60;35.10;;;;;;6259288;28;20149;-41
2022/01/24 19:06:46;;;;;;;;;;;21.90;35.60;;;;;;6274963;28;19938;-38
2022/01/24 19:09:47;;;;;;;;;;;21.50;35.40;;;;;;6262971;28;20346;-39
2022/01/24 19:12:49;;;;;;;;;;;22.10;35.80;;;;;;6280196;28;19969;-38
2022/01/24 19:15:52;;;;;;;;;;;21.80;35.70;;;;;;6288266;28;19927;-38
2022/01/24 19:18:59;;;;;;;;;;;21.60;35.40;;;;;;6266546;28;19950;-40
2022/01/24 19:25:14;;;;;;;;;;;21.90;35.80;;;;;;6275534;27;20059;-38
2022/01/24 19:28:16;;;;;;;;;;;21.50;35.70;;;;;;6284992;28;20374;-39
2022/01/24 19:31:17;;;;;;;;;;;21.80;35.80;;;;;;6285811;28;19981;-38
2022/01/24 19:34:19;;;;;;;;;;;21.50;35.80;;;;;;6285224;28;20987;-39
2022/01/24 19:37:21;;;;;;;;;;;22.10;36.10;;;;;;6296831;28;20000;-38
2022/01/24 19:40:22;;;;;;;;;;;21.30;35.60;;;;;;6298941;28;19930;-38
2022/01/24 19:43:24;;;;;;;;;;;21.50;35.50;;;;;;6296957;28;20051;-39